Startpagina
METAR-TAF:

METAR-TAF

Vliegvelden :

Wallis, Frankrijk

breedte: 13-14S, lengte: 176-10W, hoogte: 23 m

METAR: ontbreekt

Tijdstip: 06:52 (18:52 UTC)

Verwachting

Dit bericht is 1 uur en het 52 minuten geleden gemaakt, om 17:00 UTC
Verwachting geldig van 23 om 18 UTC tot 24 om 18 UTC
Wind 5 kt uit het westen
Zicht 10 km of meer
Verspreide wolken op 2000 ft
Tijdelijke
van 23 om 18 UTC tot 24 om 06 UTC
Zicht: 4500 m
Weinig wolken op 2000 ft, Stapelwolken.
regenbuien

TAF: NLWW 231700Z 2318/2418 28005KT 9999 SCT020 TEMPO 2318/2406 4500 SHRA FEW020TCU

Waarnemingen en weersverwachtingen van meer dan 4000 vliegvelden (METAR en TAF).

De beschikbare stations zijn de gele en rode punten op de kaart.

Ga met uw muis naar het station om de naam te zien.

Klik dan om waarnemingen en weersverwachtingen te zien.

kaart wijzigen: klik op de groene knoppen met een zwart kruis om in te zoomen, op de groene knop met een streepje om uit te zoomen of op de groene pijlen voor aangrenzende kaarten.


METAR-TAF: